Terminal Aerodrome Forecast
Issued by NWS Melbourne, FL

Current Version | Previous Version | Text Only | Print | Product List | Glossary On
Versions: 1 2 3 4 5 6 7 8 9 10 11 12 13 14 15 16 17 18 19 20 21
000
FTUS42 KMLB 062323
TAFMLB
TAF
KMLB 062323Z 0700/0724 35016KT P6SM OVC009
     FM070100 36016G22KT P6SM OVC008
     FM070600 01014KT P6SM OVC004
     FM071400 02017G24KT P6SM BKN010 OVC015
     FM072000 04014G20KT P6SM SCT020 BKN030=

USA.gov is the U.S. government's official web portal to all federal, state and local government web resources and services.